createdAt,value
2023-04-10T00:00:33.356Z,37.18
2023-04-10T00:03:03.431Z,35.37
2023-04-10T00:05:31.799Z,34.49
2023-04-10T00:07:58.584Z,34.83
2023-04-10T00:10:26.689Z,38.28
2023-04-10T00:12:54.118Z,35.26
2023-04-10T00:15:21.173Z,37.63
2023-04-10T00:17:50.590Z,37.82
2023-04-10T00:20:18.152Z,41.69
2023-04-10T00:22:45.025Z,45.37
2023-04-10T00:25:11.866Z,39.99
2023-04-10T00:27:38.622Z,38.33
2023-04-10T00:30:06.359Z,37.65
2023-04-10T00:32:33.300Z,35.38
2023-04-10T00:35:00.138Z,37.58
2023-04-10T00:37:27.534Z,35.02
2023-04-10T00:39:54.355Z,39.37
2023-04-10T00:42:21.233Z,37.52
2023-04-10T00:44:48.416Z,37.05
2023-04-10T00:47:15.692Z,37.56
2023-04-10T00:49:43.834Z,35.49
2023-04-10T00:52:10.957Z,35.31
2023-04-10T00:54:38.375Z,36.63
2023-04-10T00:57:05.303Z,37.70
2023-04-10T00:59:32.216Z,39.00
2023-04-10T01:01:59.380Z,44.34
2023-04-10T01:04:28.940Z,38.12
2023-04-10T01:07:15.526Z,37.91
2023-04-10T01:09:50.412Z,37.48
2023-04-10T01:12:36.654Z,35.46
2023-04-10T01:15:11.582Z,35.27
2023-04-10T01:18:19.660Z,35.35
2023-04-10T01:20:46.911Z,36.55
2023-04-10T01:23:29.467Z,37.74
2023-04-10T01:26:03.881Z,39.75
2023-04-10T01:28:53.457Z,37.52
2023-04-10T01:31:29.352Z,37.37
2023-04-10T01:34:05.062Z,35.32
2023-04-10T01:36:40.846Z,35.53
2023-04-10T01:39:09.895Z,35.43
2023-04-10T01:41:38.602Z,36.79
2023-04-10T01:44:07.513Z,38.92
2023-04-10T01:46:38.391Z,40.57
2023-04-10T01:49:06.160Z,43.63
2023-04-10T01:51:35.103Z,42.67
2023-04-10T01:54:07.108Z,42.50
2023-04-10T01:56:35.118Z,39.30
2023-04-10T01:59:04.156Z,37.87
2023-04-10T02:01:31.374Z,36.36
2023-04-10T02:03:59.872Z,40.45
2023-04-10T02:06:50.651Z,38.96
2023-04-10T02:09:43.773Z,38.99
2023-04-10T02:12:16.530Z,43.29
2023-04-10T02:14:46.719Z,46.02
2023-04-10T02:17:19.296Z,43.35
2023-04-10T02:19:51.256Z,38.62
2023-04-10T02:22:19.439Z,37.44
2023-04-10T02:24:46.674Z,35.53
2023-04-10T02:27:13.923Z,35.57
2023-04-10T02:29:40.776Z,42.12
2023-04-10T02:32:07.695Z,39.92
2023-04-10T02:34:34.572Z,38.00
2023-04-10T02:37:01.540Z,39.89
2023-04-10T02:39:29.584Z,42.01
2023-04-10T02:41:57.134Z,41.16
2023-04-10T02:44:24.104Z,37.72
2023-04-10T02:46:51.257Z,38.19
2023-04-10T02:49:19.837Z,38.08
2023-04-10T02:51:46.669Z,36.94
2023-04-10T02:54:13.544Z,36.80
2023-04-10T02:56:41.777Z,37.32
2023-04-10T02:59:08.740Z,39.00
2023-04-10T03:01:36.356Z,44.32
2023-04-10T03:04:04.454Z,38.21
2023-04-10T03:06:36.700Z,37.85
2023-04-10T03:09:04.390Z,36.27
2023-04-10T03:11:33.342Z,37.39
2023-04-10T03:14:00.660Z,36.52
2023-04-10T03:16:27.539Z,37.94
2023-04-10T03:18:54.373Z,38.56
2023-04-10T03:21:22.018Z,41.61
2023-04-10T03:23:49.941Z,42.52
2023-04-10T03:26:16.673Z,41.74
2023-04-10T03:28:43.485Z,37.99
2023-04-10T03:31:12.552Z,40.99
2023-04-10T03:33:41.573Z,40.66
2023-04-10T03:36:09.052Z,39.44
2023-04-10T03:38:36.198Z,40.12
2023-04-10T03:41:04.876Z,39.53
2023-04-10T03:43:33.597Z,38.45
2023-04-10T03:46:02.368Z,39.46
2023-04-10T03:48:30.704Z,41.66
2023-04-10T03:50:58.370Z,39.55
2023-04-10T03:53:25.553Z,40.35
2023-04-10T03:55:54.025Z,43.95
2023-04-10T03:58:22.656Z,40.85
2023-04-10T04:00:51.665Z,37.54
2023-04-10T04:03:27.857Z,36.26
2023-04-10T04:06:01.194Z,39.39
2023-04-10T04:08:30.851Z,37.02
2023-04-10T04:11:08.678Z,36.80
2023-04-10T04:13:55.991Z,36.60
2023-04-10T04:17:01.408Z,37.57
2023-04-10T04:19:56.028Z,44.05
2023-04-10T04:22:41.678Z,41.40
2023-04-10T04:25:37.857Z,41.63
2023-04-10T04:28:23.433Z,38.34
2023-04-10T04:31:20.642Z,38.84
2023-04-10T04:34:05.860Z,40.57
2023-04-10T04:37:03.353Z,38.74
2023-04-10T04:39:51.837Z,41.41
2023-04-10T04:42:24.889Z,42.07
2023-04-10T04:45:24.845Z,39.29
2023-04-10T04:48:14.706Z,40.34
2023-04-10T04:50:54.727Z,39.98
2023-04-10T04:53:40.313Z,43.32
2023-04-10T04:56:14.757Z,40.84
2023-04-10T04:59:00.047Z,41.63
2023-04-10T05:01:41.260Z,37.97
2023-04-10T05:04:31.419Z,38.04
2023-04-10T05:07:24.140Z,39.59
2023-04-10T05:10:13.960Z,39.40
2023-04-10T05:12:49.456Z,38.08
2023-04-10T05:15:37.637Z,38.04
2023-04-10T05:18:24.774Z,40.24
2023-04-10T05:21:03.450Z,38.52
2023-04-10T05:23:47.736Z,40.20
2023-04-10T05:26:28.416Z,40.43
2023-04-10T05:29:15.657Z,42.69
2023-04-10T05:32:11.525Z,40.90
2023-04-10T05:35:04.932Z,42.78
2023-04-10T05:37:43.602Z,40.53
2023-04-10T05:40:37.716Z,40.63
2023-04-10T05:43:30.948Z,40.38
2023-04-10T05:46:21.427Z,45.44
2023-04-10T05:49:04.989Z,41.95
2023-04-10T05:51:42.005Z,41.72
2023-04-10T05:54:27.359Z,40.57
2023-04-10T05:57:26.919Z,39.80
2023-04-10T06:00:06.959Z,38.66
2023-04-10T06:03:03.254Z,38.44
2023-04-10T06:05:31.861Z,39.49
2023-04-10T06:08:03.425Z,43.13
2023-04-10T06:10:31.121Z,39.00
2023-04-10T06:12:58.063Z,42.36
2023-04-10T06:15:25.999Z,39.34
2023-04-10T06:17:54.221Z,41.33
2023-04-10T06:20:21.885Z,42.46
2023-04-10T06:22:51.227Z,39.51
2023-04-10T06:25:18.908Z,38.81
2023-04-10T06:27:46.227Z,40.14
2023-04-10T06:30:13.621Z,38.66
2023-04-10T06:32:41.822Z,38.71
2023-04-10T06:35:09.310Z,37.72
2023-04-10T06:37:36.940Z,34.50
2023-04-10T06:40:07.836Z,35.18
2023-04-10T06:42:35.450Z,37.20
2023-04-10T06:45:09.359Z,36.46
2023-04-10T06:47:36.933Z,35.10
2023-04-10T06:50:04.033Z,34.15
2023-04-10T06:52:30.845Z,33.38
2023-04-10T06:54:57.704Z,35.16
2023-04-10T06:57:24.521Z,34.21
2023-04-10T06:59:52.176Z,33.83
2023-04-10T07:02:19.131Z,32.10
2023-04-10T07:04:46.688Z,33.30
2023-04-10T07:07:14.132Z,34.35
2023-04-10T07:09:41.335Z,34.92
2023-04-10T07:12:08.499Z,36.46
2023-04-10T07:14:37.012Z,33.07
2023-04-10T07:17:04.402Z,35.90
2023-04-10T07:19:31.586Z,31.97
2023-04-10T07:21:58.506Z,31.27
2023-04-10T07:24:25.339Z,32.65
2023-04-10T07:26:52.325Z,33.70
2023-04-10T07:29:19.283Z,31.07
2023-04-10T07:31:46.374Z,33.08
2023-04-10T07:34:13.199Z,32.39
2023-04-10T07:36:39.959Z,31.25
2023-04-10T07:39:07.520Z,32.69
2023-04-10T07:41:35.677Z,32.20
2023-04-10T07:44:02.703Z,32.95
2023-04-10T07:46:29.610Z,34.01
2023-04-10T07:48:56.685Z,33.59
2023-04-10T07:51:24.103Z,33.51
2023-04-10T07:53:51.097Z,31.24
2023-04-10T07:56:19.226Z,31.51
2023-04-10T07:58:46.654Z,34.28
2023-04-10T08:01:14.275Z,32.56
2023-04-10T08:03:42.857Z,32.02
2023-04-10T08:06:10.542Z,31.36
2023-04-10T08:08:39.208Z,32.25
2023-04-10T08:11:33.223Z,28.28
2023-04-10T08:14:03.131Z,27.91
2023-04-10T08:16:32.253Z,30.65
2023-04-10T08:19:00.184Z,31.04
2023-04-10T08:21:28.683Z,29.55
2023-04-10T08:23:57.469Z,30.92
2023-04-10T08:26:26.235Z,31.36
2023-04-10T08:28:55.668Z,27.84
2023-04-10T08:31:24.539Z,27.69
2023-04-10T08:33:52.595Z,29.32
2023-04-10T08:36:20.505Z,27.58
2023-04-10T08:38:48.694Z,30.68
2023-04-10T08:41:18.320Z,27.64
2023-04-10T08:43:46.423Z,27.16
2023-04-10T08:46:14.857Z,28.16
2023-04-10T08:48:53.091Z,29.31
2023-04-10T08:51:26.329Z,28.83
2023-04-10T08:54:02.672Z,25.92
2023-04-10T08:56:31.792Z,26.02
2023-04-10T08:58:59.048Z,27.86
2023-04-10T09:01:26.038Z,26.91
2023-04-10T09:03:53.359Z,26.50
2023-04-10T09:06:20.455Z,26.51
2023-04-10T09:08:47.423Z,26.80
2023-04-10T09:11:14.711Z,26.68
2023-04-10T09:13:44.095Z,25.26
2023-04-10T09:16:12.055Z,27.05
2023-04-10T09:18:48.766Z,24.97
2023-04-10T09:21:18.764Z,26.92
2023-04-10T09:23:46.880Z,26.12
2023-04-10T09:26:28.247Z,25.51
2023-04-10T09:29:10.979Z,27.28
2023-04-10T09:31:40.326Z,25.01
2023-04-10T09:34:22.117Z,24.87
2023-04-10T09:36:56.088Z,27.21
2023-04-10T09:39:35.859Z,25.21
2023-04-10T09:42:02.980Z,26.61
2023-04-10T09:44:40.610Z,24.61
2023-04-10T09:47:22.480Z,27.53
2023-04-10T09:49:56.939Z,25.55
2023-04-10T09:52:27.244Z,26.11
2023-04-10T09:54:55.878Z,25.76
2023-04-10T09:57:25.435Z,24.53
2023-04-10T09:59:55.450Z,23.43
2023-04-10T10:02:25.761Z,22.55
2023-04-10T10:04:54.178Z,22.08
2023-04-10T10:07:24.108Z,20.71
2023-04-10T10:09:54.281Z,22.59
2023-04-10T10:12:34.445Z,19.22
2023-04-10T10:15:03.776Z,20.48
2023-04-10T10:17:39.260Z,19.98
2023-04-10T10:20:11.364Z,20.40
2023-04-10T10:22:40.758Z,21.69
2023-04-10T10:25:09.383Z,21.21
2023-04-10T10:27:39.294Z,21.45
2023-04-10T10:30:20.122Z,22.33
2023-04-10T10:32:55.813Z,21.32
2023-04-10T10:35:25.980Z,21.69
2023-04-10T10:37:56.300Z,21.26
2023-04-10T10:40:40.994Z,21.21
2023-04-10T10:43:23.043Z,21.29
2023-04-10T10:46:04.106Z,18.85
2023-04-10T10:48:31.056Z,18.92
2023-04-10T10:51:00.446Z,20.41
2023-04-10T10:53:45.750Z,18.98
2023-04-10T10:56:18.432Z,16.18
2023-04-10T10:58:54.583Z,16.94
2023-04-10T11:01:22.768Z,17.71
2023-04-10T11:03:51.182Z,17.77
2023-04-10T11:06:20.376Z,17.40
2023-04-10T11:08:49.471Z,19.08
2023-04-10T11:11:23.492Z,17.01
2023-04-10T11:13:51.784Z,17.12
2023-04-10T11:16:21.315Z,18.02
2023-04-10T11:19:02.791Z,15.49
2023-04-10T11:21:57.204Z,17.76
2023-04-10T11:24:24.785Z,18.69
2023-04-10T11:26:51.842Z,16.48
2023-04-10T11:29:28.047Z,18.17
2023-04-10T11:32:00.695Z,16.41
2023-04-10T11:34:27.849Z,18.75
2023-04-10T11:36:55.934Z,17.72
2023-04-10T11:39:23.869Z,18.37
2023-04-10T11:41:52.420Z,17.41
2023-04-10T11:44:40.979Z,15.99
2023-04-10T11:47:12.806Z,15.83
2023-04-10T11:49:40.113Z,15.65
2023-04-10T11:52:07.164Z,17.60
2023-04-10T11:54:34.185Z,17.75
2023-04-10T11:57:07.149Z,14.56
2023-04-10T11:59:34.629Z,15.94
2023-04-10T12:02:09.912Z,14.70
2023-04-10T12:04:37.504Z,17.01
2023-04-10T12:07:05.593Z,17.21
2023-04-10T12:09:32.398Z,17.23
2023-04-10T12:12:07.362Z,16.04
2023-04-10T12:14:39.940Z,16.07
2023-04-10T12:17:09.809Z,18.35
2023-04-10T12:19:38.975Z,14.26
2023-04-10T12:22:07.041Z,16.42
2023-04-10T12:24:51.317Z,15.07
2023-04-10T12:27:23.190Z,15.49
2023-04-10T12:29:52.389Z,16.71
2023-04-10T12:32:19.912Z,16.89
2023-04-10T12:34:57.391Z,16.28
2023-04-10T12:37:26.777Z,15.43
2023-04-10T12:39:54.283Z,15.23
2023-04-10T12:42:24.010Z,16.40
2023-04-10T12:44:56.191Z,18.06
2023-04-10T12:47:24.486Z,15.97
2023-04-10T12:50:11.866Z,15.48
2023-04-10T12:52:41.940Z,17.34
2023-04-10T12:55:21.479Z,18.29
2023-04-10T12:57:49.252Z,17.53
2023-04-10T13:00:19.219Z,18.51
2023-04-10T13:02:47.825Z,18.94
2023-04-10T13:05:15.828Z,18.18
2023-04-10T13:07:42.978Z,18.16
2023-04-10T13:10:11.061Z,17.25
2023-04-10T13:12:40.206Z,17.72
2023-04-10T13:15:07.978Z,17.61
2023-04-10T13:17:35.433Z,18.26
2023-04-10T13:20:02.432Z,19.34
2023-04-10T13:22:29.322Z,19.75
2023-04-10T13:24:56.248Z,19.38
2023-04-10T13:27:23.071Z,18.33
2023-04-10T13:29:49.856Z,20.32
2023-04-10T13:32:17.001Z,20.33
2023-04-10T13:34:43.851Z,20.85
2023-04-10T13:37:13.806Z,19.40
2023-04-10T13:39:41.736Z,20.09
2023-04-10T13:42:08.552Z,21.77
2023-04-10T13:44:36.719Z,20.57
2023-04-10T13:47:03.507Z,20.30
2023-04-10T13:49:33.105Z,19.29
2023-04-10T13:51:59.902Z,20.51
2023-04-10T13:54:26.785Z,19.80
2023-04-10T13:56:54.953Z,20.62
2023-04-10T13:59:22.201Z,19.51
2023-04-10T14:01:52.076Z,20.25
2023-04-10T14:04:19.348Z,20.12
2023-04-10T14:06:46.156Z,19.25
2023-04-10T14:09:13.201Z,20.88
2023-04-10T14:11:41.344Z,21.89
2023-04-10T14:14:08.565Z,21.74
2023-04-10T14:16:35.400Z,19.92
2023-04-10T14:19:02.165Z,21.42
2023-04-10T14:21:28.961Z,21.54
2023-04-10T14:23:56.786Z,20.62
2023-04-10T14:26:23.807Z,20.13
2023-04-10T14:28:50.585Z,21.02
2023-04-10T14:31:17.834Z,19.35
2023-04-10T14:33:44.757Z,20.36
2023-04-10T14:36:12.017Z,20.97
2023-04-10T14:38:40.340Z,20.39
2023-04-10T14:41:07.562Z,18.38
2023-04-10T14:43:34.562Z,19.32
2023-04-10T14:46:01.457Z,19.89
2023-04-10T14:48:28.670Z,20.25
2023-04-10T14:50:59.169Z,21.23
2023-04-10T14:53:26.877Z,20.56
2023-04-10T14:55:53.888Z,20.97
2023-04-10T14:58:20.687Z,19.77
2023-04-10T15:00:47.482Z,19.72
2023-04-10T15:03:14.375Z,20.51
2023-04-10T15:05:42.418Z,19.70
2023-04-10T15:08:09.217Z,19.64
2023-04-10T15:10:36.022Z,21.16
2023-04-10T15:13:02.809Z,20.80
2023-04-10T15:15:30.763Z,21.42
2023-04-10T15:17:57.656Z,20.38
2023-04-10T15:20:24.465Z,22.34
2023-04-10T15:22:51.399Z,21.69
2023-04-10T15:25:18.183Z,20.52
2023-04-10T15:27:45.162Z,19.59
2023-04-10T15:30:12.600Z,17.58
2023-04-10T15:32:39.559Z,18.79
2023-04-10T15:35:06.909Z,20.77
2023-04-10T15:37:36.661Z,21.16
2023-04-10T15:40:04.731Z,21.43
2023-04-10T15:42:31.927Z,20.95
2023-04-10T15:44:58.972Z,20.79
2023-04-10T15:47:27.138Z,21.59
2023-04-10T15:49:57.744Z,21.66
2023-04-10T15:52:24.584Z,21.70
2023-04-10T15:54:51.467Z,20.67
2023-04-10T15:57:18.491Z,20.51
2023-04-10T15:59:45.302Z,22.41
2023-04-10T16:02:13.028Z,21.14
2023-04-10T16:04:41.270Z,22.17
2023-04-10T16:07:08.303Z,23.01
2023-04-10T16:09:35.097Z,23.49
2023-04-10T16:12:02.139Z,23.43
2023-04-10T16:14:29.252Z,23.49
2023-04-10T16:16:56.843Z,23.37
2023-04-10T16:19:24.137Z,23.93
2023-04-10T16:21:51.238Z,22.97
2023-04-10T16:24:18.051Z,24.75
2023-04-10T16:26:44.915Z,25.53
2023-04-10T16:29:12.612Z,25.05
2023-04-10T16:31:39.812Z,24.96
2023-04-10T16:34:06.723Z,24.80
2023-04-10T16:36:33.533Z,24.45
2023-04-10T16:39:00.297Z,24.44
2023-04-10T16:41:28.426Z,24.66
2023-04-10T16:43:55.531Z,24.85
2023-04-10T16:46:22.499Z,24.35
2023-04-10T16:48:49.350Z,25.17
2023-04-10T16:51:17.610Z,24.62
2023-04-10T16:53:45.330Z,24.89
2023-04-10T16:56:12.918Z,24.46
2023-04-10T16:58:42.328Z,24.38
2023-04-10T17:01:20.909Z,24.95
2023-04-10T17:03:48.668Z,24.78
2023-04-10T17:06:16.334Z,24.81
2023-04-10T17:08:44.632Z,25.48
2023-04-10T17:11:15.061Z,26.97
2023-04-10T17:13:42.479Z,27.11
2023-04-10T17:16:09.724Z,26.34
2023-04-10T17:18:36.936Z,26.62
2023-04-10T17:21:04.177Z,27.05
2023-04-10T17:23:31.308Z,28.29
2023-04-10T17:25:58.932Z,25.64
2023-04-10T17:28:26.238Z,27.30
2023-04-10T17:30:54.344Z,27.62
2023-04-10T17:33:23.582Z,30.31
2023-04-10T17:35:53.541Z,29.14
2023-04-10T17:38:20.569Z,27.74
2023-04-10T17:40:47.430Z,27.05
2023-04-10T17:43:14.265Z,28.46
2023-04-10T17:45:41.408Z,30.64
2023-04-10T17:48:09.273Z,31.07
2023-04-10T17:50:36.151Z,31.07
2023-04-10T17:53:02.974Z,32.03
2023-04-10T17:55:30.310Z,29.95
2023-04-10T17:57:59.322Z,32.22
2023-04-10T18:00:26.297Z,32.40
2023-04-10T18:02:59.414Z,32.23
2023-04-10T18:05:29.427Z,29.84
2023-04-10T18:07:57.852Z,30.52
2023-04-10T18:10:24.729Z,30.91
2023-04-10T18:12:51.632Z,30.99
2023-04-10T18:15:18.793Z,31.40
2023-04-10T18:17:46.023Z,33.00
2023-04-10T18:20:13.473Z,34.84
2023-04-10T18:22:41.032Z,33.05
2023-04-10T18:25:08.296Z,32.54
2023-04-10T18:27:36.025Z,32.04
2023-04-10T18:30:03.065Z,31.61
2023-04-10T18:32:30.173Z,32.56
2023-04-10T18:34:58.358Z,31.16
2023-04-10T18:37:26.197Z,32.26
2023-04-10T18:39:54.280Z,31.21
2023-04-10T18:42:25.034Z,34.15
2023-04-10T18:44:51.964Z,32.47
2023-04-10T18:47:18.800Z,32.83
2023-04-10T18:49:46.330Z,34.04
2023-04-10T18:52:14.254Z,33.02
2023-04-10T18:54:46.052Z,31.03
2023-04-10T18:57:15.154Z,32.47
2023-04-10T18:59:42.096Z,33.78
2023-04-10T19:02:10.866Z,32.63
2023-04-10T19:04:38.007Z,33.10
2023-04-10T19:07:04.913Z,32.20
2023-04-10T19:09:31.796Z,33.46
2023-04-10T19:12:00.119Z,31.78
2023-04-10T19:14:27.008Z,33.85
2023-04-10T19:16:53.795Z,34.70
2023-04-10T19:19:20.754Z,34.21
2023-04-10T19:21:47.572Z,35.75
2023-04-10T19:24:15.264Z,35.03
2023-04-10T19:26:42.080Z,34.23
2023-04-10T19:29:09.088Z,33.35
2023-04-10T19:31:35.967Z,35.62
2023-04-10T19:34:04.640Z,35.32
2023-04-10T19:36:31.563Z,32.70
2023-04-10T19:38:58.861Z,33.15
2023-04-10T19:41:26.538Z,34.84
2023-04-10T19:43:54.184Z,34.46
2023-04-10T19:46:22.150Z,34.83
2023-04-10T19:48:49.132Z,34.82
2023-04-10T19:51:16.550Z,33.20
2023-04-10T19:53:44.791Z,35.15
2023-04-10T19:56:11.825Z,35.75
2023-04-10T19:58:40.559Z,35.62
2023-04-10T20:01:08.970Z,37.50
2023-04-10T20:03:37.098Z,38.55
2023-04-10T20:06:07.285Z,37.49
2023-04-10T20:08:34.878Z,36.42
2023-04-10T20:11:05.986Z,36.22
2023-04-10T20:13:34.461Z,34.84
2023-04-10T20:16:02.158Z,34.55
2023-04-10T20:18:29.769Z,35.22
2023-04-10T20:20:56.750Z,33.89
2023-04-10T20:23:24.418Z,33.12
2023-04-10T20:25:51.266Z,34.54
2023-04-10T20:28:18.172Z,35.92
2023-04-10T20:30:46.066Z,36.43
2023-04-10T20:33:12.980Z,36.50
2023-04-10T20:35:39.824Z,37.23
2023-04-10T20:38:06.733Z,35.13
2023-04-10T20:40:33.590Z,35.50
2023-04-10T20:43:00.909Z,35.25
2023-04-10T20:45:27.644Z,36.05
2023-04-10T20:47:54.576Z,33.58
2023-04-10T20:50:21.412Z,33.25
2023-04-10T20:52:48.211Z,32.66
2023-04-10T20:55:15.596Z,32.24
2023-04-10T20:57:42.680Z,33.73
2023-04-10T21:00:10.060Z,35.57
2023-04-10T21:02:37.014Z,36.25
2023-04-10T21:05:04.180Z,35.62
2023-04-10T21:07:31.315Z,36.25
2023-04-10T21:09:58.120Z,37.26
2023-04-10T21:12:24.941Z,40.84
2023-04-10T21:14:51.766Z,37.41
2023-04-10T21:17:19.282Z,36.17
2023-04-10T21:19:46.421Z,38.94
2023-04-10T21:22:13.559Z,36.93
2023-04-10T21:24:40.395Z,35.84
2023-04-10T21:27:08.136Z,32.72
2023-04-10T21:29:34.883Z,35.89
2023-04-10T21:32:01.719Z,37.23
2023-04-10T21:34:28.649Z,35.10
2023-04-10T21:36:55.458Z,38.16
2023-04-10T21:39:22.184Z,37.33
2023-04-10T21:41:49.000Z,33.91
2023-04-10T21:44:16.626Z,35.23
2023-04-10T21:46:43.455Z,35.66
2023-04-10T21:49:10.501Z,37.57
2023-04-10T21:51:37.424Z,36.96
2023-04-10T21:54:04.283Z,34.99
2023-04-10T21:56:31.816Z,34.46
2023-04-10T21:58:58.620Z,36.20
2023-04-10T22:01:25.453Z,38.43
2023-04-10T22:03:54.044Z,36.48
2023-04-10T22:06:21.100Z,34.80
2023-04-10T22:08:48.096Z,36.78
2023-04-10T22:11:15.365Z,37.60
2023-04-10T22:13:42.236Z,35.22
2023-04-10T22:16:09.203Z,35.52
2023-04-10T22:18:36.015Z,36.91
2023-04-10T22:21:03.085Z,37.52
2023-04-10T22:23:30.508Z,36.22
2023-04-10T22:26:00.986Z,36.30
2023-04-10T22:28:29.142Z,39.22
2023-04-10T22:30:55.957Z,40.00
2023-04-10T22:33:22.819Z,39.40
2023-04-10T22:35:49.582Z,38.25
2023-04-10T22:38:17.209Z,37.87
2023-04-10T22:40:43.975Z,37.54
2023-04-10T22:43:11.277Z,37.17
2023-04-10T22:45:40.344Z,39.12
2023-04-10T22:48:07.131Z,39.12
2023-04-10T22:50:33.954Z,39.20
2023-04-10T22:53:00.877Z,41.67
2023-04-10T22:55:27.713Z,39.85
2023-04-10T22:57:54.521Z,38.85
2023-04-10T23:00:21.375Z,38.29
2023-04-10T23:02:48.574Z,40.35
2023-04-10T23:05:15.917Z,38.20
2023-04-10T23:07:42.888Z,40.62
2023-04-10T23:10:09.903Z,40.74
2023-04-10T23:12:37.804Z,40.37
2023-04-10T23:15:06.090Z,42.37
2023-04-10T23:17:32.890Z,42.71
2023-04-10T23:19:59.866Z,40.96
2023-04-10T23:22:29.535Z,41.44
2023-04-10T23:24:56.567Z,43.27
2023-04-10T23:27:23.980Z,40.60
2023-04-10T23:29:50.727Z,40.14
2023-04-10T23:32:17.652Z,39.17
2023-04-10T23:34:44.402Z,40.28
2023-04-10T23:37:11.187Z,40.15
2023-04-10T23:39:37.966Z,39.12
2023-04-10T23:42:04.820Z,39.67
2023-04-10T23:44:32.696Z,40.66
2023-04-10T23:46:59.506Z,39.11
2023-04-10T23:49:26.349Z,38.39
2023-04-10T23:51:53.101Z,37.36
2023-04-10T23:54:19.889Z,35.32
2023-04-10T23:56:47.717Z,40.04
2023-04-10T23:59:17.291Z,36.68
